.
WxDataArchive / Data Records for 2010-10-02
2010-10-01 October 2010 2010-10-03

Data Records for Saturday, 02 October 2010

Time	Temp	Chill	HIndex	Humid	Dewpt	 Wind 	HiWind	WindDir	Rain 	Barom 
-----	----	-----	------	-----	-----	------	------	-------	-----	----- 
00:00	50.4	50.4	50.4	80	44.5	0	0	---	0.00	29.967 
00:05	50.4	50.4	50.4	80	44.5	0	0	---	0.00	29.967 
00:10	50.2	50.2	50.2	80	44.3	0	0	---	0.00	29.967 
00:15	50.2	50.2	50.2	80	44.3	0	0	---	0.00	29.963 
00:20	50.2	50.2	50.2	80	44.3	0	0	---	0.00	29.963 
00:25	50.2	50.2	50.2	80	44.3	0	0	---	0.00	29.963 
00:30	50.2	50.2	50.2	80	44.3	0	0	---	0.00	29.962 
00:35	50.1	50.1	50.1	80	44.2	0	0	---	0.00	29.962 
00:40	50.2	50.2	50.2	79	43.9	0	0	---	0.00	29.962 
00:45	50.4	50.4	50.4	79	44.1	0	0	---	0.00	29.959 
00:50	50.4	50.4	50.4	79	44.1	0	0	---	0.00	29.959 
00:55	50.7	50.7	50.7	78	44.1	0	0	---	0.00	29.959 
01:00	51.0	51.0	51.0	77	44.0	0	0	---	0.00	29.947 
01:05	51.1	51.1	51.1	77	44.1	0	0	---	0.00	29.947 
01:10	51.3	51.3	51.3	76	44.0	0	0	---	0.00	29.947 
01:15	51.3	51.3	51.3	75	43.6	0	0	---	0.00	29.943 
01:20	51.4	51.4	51.4	75	43.7	0	0	---	0.00	29.943 
01:25	51.6	51.6	51.6	74	43.6	0	1	315	0.00	29.943 
01:30	51.6	51.6	51.6	73	43.2	0	0	---	0.00	29.939 
01:35	51.6	51.6	51.6	73	43.2	0	0	---	0.00	29.939 
01:40	51.7	51.7	51.7	73	43.3	0	1	315	0.00	29.939 
01:45	51.9	51.9	51.9	73	43.5	0	1	315	0.00	29.933 
01:50	51.9	51.9	51.9	73	43.5	0	0	---	0.00	29.933 
01:55	52.2	52.2	52.2	72	43.4	0	0	---	0.00	29.933 
02:00	52.3	52.3	52.3	72	43.5	0	1	315	0.00	29.930 
02:05	52.6	52.6	52.6	71	43.5	0	2	315	0.00	29.930 
02:10	53.2	53.2	53.2	69	43.3	0	3	225	0.00	29.930 
02:15	53.6	53.6	53.6	68	43.3	1	3	248	0.00	29.925 
02:20	54.1	54.1	54.1	67	43.4	0	2	248	0.00	29.925 
02:25	54.4	54.4	54.4	65	42.9	0	2	292	0.00	29.925 
02:30	54.5	54.5	54.5	65	43.0	1	3	248	0.00	29.925 
02:35	54.7	54.7	54.7	65	43.2	1	4	248	0.00	29.925 
02:40	54.8	54.8	54.8	64	42.9	1	3	248	0.00	29.925 
02:45	54.8	54.8	54.8	64	42.9	0	3	248	0.00	29.923 
02:50	54.8	54.8	54.8	64	42.9	0	3	22	0.00	29.923 
02:55	54.8	54.8	54.8	63	42.4	0	3	225	0.00	29.923 
03:00	54.8	54.8	54.8	63	42.4	0	5	270	0.00	29.915 
03:05	54.7	54.7	54.7	63	42.4	0	3	270	0.00	29.915 
03:10	54.7	54.7	54.7	64	42.8	0	2	225	0.00	29.915 
03:15	54.5	54.5	54.5	64	42.6	0	2	225	0.00	29.911 
03:20	54.5	54.5	54.5	64	42.6	0	2	225	0.00	29.911 
03:25	54.5	54.5	54.5	64	42.6	0	2	225	0.00	29.911 
03:30	54.7	54.7	54.7	64	42.8	0	2	225	0.00	29.927 
03:35	55.0	55.0	55.0	64	43.0	1	2	225	0.00	29.927 
03:40	55.3	55.3	55.3	64	43.3	0	1	225	0.00	29.927 
03:45	55.6	55.6	55.6	63	43.2	0	1	225	0.00	29.929 
03:50	55.7	55.7	55.7	63	43.3	0	1	225	0.00	29.929 
03:55	55.7	55.7	55.7	64	43.7	0	0	---	0.00	29.929 
04:00	55.4	55.4	55.4	65	43.8	0	0	---	0.00	29.927 
04:05	55.3	55.3	55.3	64	43.3	0	0	---	0.00	29.927 
04:10	55.3	55.3	55.3	65	43.7	0	0	---	0.00	29.927 
04:15	55.1	55.1	55.1	65	43.5	0	3	225	0.00	29.924 
04:20	55.1	55.1	55.1	65	43.5	0	1	180	0.00	29.924 
04:25	55.3	55.3	55.3	65	43.7	0	3	202	0.00	29.924 
04:30	55.4	55.4	55.4	63	43.0	0	1	270	0.00	29.924 
04:35	55.6	55.6	55.6	63	43.2	0	1	270	0.00	29.924 
04:40	55.7	55.7	55.7	64	43.7	0	1	270	0.00	29.924 
04:45	55.7	55.7	55.7	65	44.1	0	2	270	0.00	29.938 
04:50	55.6	55.6	55.6	68	45.2	0	3	270	0.00	29.938 
04:55	55.1	55.1	55.1	73	46.6	0	1	270	0.01	29.938 
05:00	54.5	54.5	54.5	76	47.1	0	1	270	0.01	29.946 
05:05	53.9	53.9	53.9	78	47.2	0	1	270	0.00	29.946 
05:10	53.3	53.3	53.3	80	47.3	0	0	---	0.00	29.946 
05:15	53.1	53.1	53.1	81	47.4	0	1	270	0.00	29.951 
05:20	52.8	52.8	52.8	82	47.5	0	2	270	0.00	29.951 
05:25	52.8	52.8	52.8	82	47.5	0	2	270	0.00	29.951 
05:30	52.8	52.8	52.8	83	47.8	0	2	270	0.01	29.940 
05:35	52.6	52.6	52.6	84	47.9	0	1	270	0.01	29.940 
05:40	52.3	52.3	52.3	85	47.9	0	1	270	0.00	29.940 
05:45	52.3	52.3	52.3	86	48.2	0	0	---	0.00	29.950 
05:50	52.2	52.2	52.2	87	48.4	0	0	---	0.00	29.950 
05:55	52.3	52.3	52.3	88	48.9	0	1	270	0.00	29.950 
06:00	52.3	52.3	52.3	88	48.9	0	1	270	0.00	29.956 
06:05	52.3	52.3	52.3	89	49.2	0	0	---	0.00	29.956 
06:10	52.2	52.2	52.2	89	49.1	0	0	---	0.00	29.956 
06:15	52.2	52.2	52.2	90	49.4	0	0	---	0.00	29.947 
06:20	52.2	52.2	52.2	90	49.4	0	0	---	0.00	29.947 
06:25	52.0	52.0	52.0	90	49.2	0	0	---	0.00	29.947 
06:30	52.2	52.2	52.2	91	49.7	0	1	270	0.01	29.937 
06:35	52.2	52.2	52.2	91	49.7	0	0	---	0.00	29.937 
06:40	52.0	52.0	52.0	92	49.7	0	0	---	0.00	29.937 
06:45	52.0	52.0	52.0	92	49.7	0	0	---	0.00	29.943 
06:50	52.0	52.0	52.0	92	49.7	0	0	---	0.00	29.943 
06:55	52.0	52.0	52.0	92	49.7	0	0	---	0.00	29.943 
07:00	52.0	52.0	52.0	92	49.7	0	0	---	0.00	29.947 
07:05	52.2	52.2	52.2	92	49.9	0	0	---	0.00	29.947 
07:10	52.2	52.2	52.2	93	50.2	0	1	270	0.00	29.947 
07:15	52.2	52.2	52.2	93	50.2	0	0	---	0.00	29.959 
07:20	52.2	52.2	52.2	93	50.2	0	0	---	0.00	29.959 
07:25	52.2	52.2	52.2	93	50.2	0	0	---	0.00	29.959 
07:30	52.2	52.2	52.2	93	50.2	1	3	270	0.00	29.976 
07:35	52.3	52.3	52.3	93	50.3	2	3	270	0.01	29.976 
07:40	52.3	52.3	52.3	93	50.3	1	3	270	0.01	29.976 
07:45	52.3	52.3	52.3	93	50.3	1	3	270	0.01	29.991 
07:50	52.3	52.3	52.3	93	50.3	1	3	270	0.00	29.991 
07:55	52.3	52.3	52.3	93	50.3	1	3	270	0.00	29.991 
08:00	52.3	52.3	52.3	93	50.3	0	1	270	0.01	29.981 
08:05	52.3	52.3	52.3	94	50.6	0	2	270	0.00	29.981 
08:10	52.3	52.3	52.3	94	50.6	0	2	270	0.01	29.981 
08:15	52.3	52.3	52.3	94	50.6	0	1	270	0.00	29.991 
08:20	52.3	52.3	52.3	94	50.6	0	2	270	0.01	29.991 
08:25	52.3	52.3	52.3	94	50.6	0	2	270	0.00	29.991 
08:30	52.3	52.3	52.3	94	50.6	0	2	270	0.01	30.000 
08:35	52.3	52.3	52.3	94	50.6	1	2	270	0.01	30.000 
08:40	52.3	52.3	52.3	94	50.6	0	2	270	0.01	30.000 
08:45	52.3	52.3	52.3	94	50.6	0	2	270	0.01	30.000 
08:50	52.3	52.3	52.3	95	50.9	0	1	270	0.01	30.000 
08:55	52.3	52.3	52.3	95	50.9	0	1	270	0.01	30.000 
09:00	52.3	52.3	52.3	95	50.9	0	0	---	0.01	29.999 
09:05	52.5	52.5	52.5	95	51.1	0	1	270	0.01	29.999 
09:10	52.5	52.5	52.5	95	51.1	0	0	---	0.00	29.999 
09:15	52.5	52.5	52.5	95	51.1	0	0	---	0.00	30.001 
09:20	52.5	52.5	52.5	95	51.1	0	2	270	0.00	30.001 
09:25	52.5	52.5	52.5	95	51.1	0	0	---	0.00	30.001 
09:30	52.5	52.5	52.5	95	51.1	0	0	---	0.00	30.001 
09:35	52.5	52.5	52.5	95	51.1	0	2	270	0.00	30.001 
09:40	52.3	52.3	52.3	95	50.9	0	2	270	0.00	30.001 
09:45	52.2	52.2	52.2	95	50.8	0	0	---	0.00	30.004 
09:50	52.2	52.2	52.2	95	50.8	0	1	270	0.00	30.004 
09:55	52.0	52.0	52.0	95	50.6	0	1	270	0.00	30.004 
10:00	51.9	51.9	51.9	95	50.5	0	2	270	0.00	30.017 
10:05	51.9	51.9	51.9	95	50.5	0	2	270	0.00	30.017 
10:10	51.7	51.7	51.7	95	50.3	0	1	270	0.00	30.017 
10:15	51.7	51.7	51.7	95	50.3	0	1	270	0.00	30.020 
10:20	51.7	51.7	51.7	95	50.3	0	2	270	0.00	30.020 
10:25	51.7	51.7	51.7	95	50.3	0	0	---	0.00	30.020 
10:30	51.7	51.7	51.7	95	50.3	0	1	270	0.00	30.016 
10:35	51.6	51.6	51.6	95	50.2	0	3	270	0.00	30.016 
10:40	51.3	51.3	51.3	95	49.9	0	3	270	0.00	30.016 
10:45	51.3	51.3	51.3	95	49.9	0	2	270	0.00	30.024 
10:50	51.0	51.0	51.0	94	49.3	0	2	270	0.00	30.024 
10:55	51.0	51.0	51.0	94	49.3	0	2	270	0.00	30.024 
11:00	51.0	51.0	51.0	94	49.3	1	4	270	0.00	30.021 
11:05	51.1	51.1	51.1	94	49.4	0	1	270	0.00	30.021 
11:10	51.1	51.1	51.1	94	49.4	0	3	270	0.00	30.021 
11:15	51.0	51.0	51.0	93	49.0	1	4	270	0.00	30.024 
11:20	51.1	51.1	51.1	93	49.1	0	2	292	0.00	30.024 
11:25	51.1	51.1	51.1	92	48.9	0	4	270	0.00	30.024 
11:30	51.1	51.1	51.1	92	48.9	0	1	338	0.00	30.028 
11:35	51.0	51.0	51.0	91	48.5	1	5	315	0.00	30.028 
11:40	50.8	50.8	50.8	90	48.0	0	2	270	0.00	30.028 
11:45	50.8	50.8	50.8	90	48.0	0	2	315	0.00	30.036 
11:50	51.0	51.0	51.0	89	47.9	0	2	315	0.00	30.036 
11:55	51.1	51.1	51.1	89	48.0	0	2	338	0.00	30.036 
12:00	51.0	51.0	51.0	88	47.6	1	4	315	0.00	30.046 
12:05	51.0	51.0	51.0	86	47.0	0	5	315	0.00	30.046 
12:10	51.1	51.1	51.1	86	47.1	0	1	315	0.00	30.046 
12:15	51.3	51.3	51.3	85	46.9	1	3	338	0.00	30.051 
12:20	51.3	51.3	51.3	84	46.6	1	3	338	0.00	30.051 
12:25	51.4	51.4	51.4	82	46.1	1	4	292	0.00	30.051 
12:30	51.6	51.6	51.6	81	46.0	1	3	315	0.00	30.042 
12:35	51.7	51.7	51.7	81	46.1	0	2	315	0.00	30.042 
12:40	51.7	51.7	51.7	81	46.1	0	4	45	0.00	30.042 
12:45	51.9	51.9	51.9	80	45.9	0	4	68	0.00	30.050 
12:50	51.9	51.9	51.9	80	45.9	0	4	112	0.00	30.050 
12:55	51.9	51.9	51.9	80	45.9	1	3	338	0.00	30.050 
13:00	51.7	51.7	51.7	81	46.1	0	2	22	0.00	30.049 
13:05	51.9	51.9	51.9	81	46.3	0	5	270	0.00	30.049 
13:10	51.9	51.9	51.9	81	46.3	0	3	338	0.00	30.049 
13:15	51.6	51.6	51.6	81	46.0	1	4	315	0.00	30.052 
13:20	51.4	51.4	51.4	81	45.8	1	3	270	0.00	30.052 
13:25	51.4	51.4	51.4	82	46.1	0	2	45	0.00	30.052 
13:30	51.3	51.3	51.3	81	45.7	1	3	315	0.00	30.049 
13:35	51.3	51.3	51.3	81	45.7	1	4	315	0.00	30.049 
13:40	51.4	51.4	51.4	81	45.8	0	3	135	0.00	30.049 
13:45	51.4	51.4	51.4	81	45.8	1	3	270	0.00	30.051 
13:50	51.3	51.3	51.3	84	46.6	1	3	315	0.00	30.051 
13:55	51.4	51.4	51.4	80	45.4	0	3	248	0.00	30.051 
14:00	51.3	51.3	51.3	80	45.3	1	4	292	0.00	30.055 
14:05	51.1	51.1	51.1	80	45.1	1	5	315	0.00	30.055 
14:10	51.1	51.1	51.1	81	45.5	1	4	292	0.00	30.055 
14:15	51.3	51.3	51.3	80	45.3	2	5	292	0.00	30.050 
14:20	51.7	51.7	51.7	80	45.7	1	4	292	0.00	30.050 
14:25	51.7	51.7	51.7	79	45.4	1	3	292	0.00	30.050 
14:30	51.7	51.7	51.7	79	45.4	0	3	292	0.00	30.052 
14:35	51.6	51.6	51.6	79	45.3	0	4	292	0.00	30.052 
14:40	52.0	52.0	52.0	79	45.7	0	3	292	0.00	30.052 
14:45	52.3	52.3	52.3	78	45.6	1	4	315	0.00	30.049 
14:50	52.6	52.6	52.6	78	45.9	1	3	315	0.00	30.049 
14:55	52.8	52.8	52.8	76	45.4	1	4	315	0.00	30.049 
15:00	52.5	52.5	52.5	75	44.8	1	5	270	0.00	30.061 
15:05	52.2	52.2	52.2	75	44.5	1	2	292	0.00	30.061 
15:10	52.2	52.2	52.2	75	44.5	1	3	338	0.00	30.061 
15:15	52.0	52.0	52.0	75	44.3	1	5	338	0.00	30.064 
15:20	52.0	52.0	52.0	76	44.7	0	3	292	0.00	30.064 
15:25	52.0	52.0	52.0	76	44.7	1	4	292	0.00	30.064 
15:30	52.2	52.2	52.2	75	44.5	0	2	90	0.00	30.063 
15:35	52.3	52.3	52.3	75	44.6	0	1	90	0.00	30.063 
15:40	52.6	52.6	52.6	74	44.6	0	1	90	0.00	30.063 
15:45	52.6	52.6	52.6	73	44.2	0	2	68	0.00	30.062 
15:50	52.6	52.6	52.6	74	44.6	1	4	135	0.00	30.062 
15:55	52.5	52.5	52.5	73	44.1	0	2	135	0.00	30.062 
16:00	52.3	52.3	52.3	74	44.3	0	3	270	0.00	30.065 
16:05	52.3	52.3	52.3	74	44.3	0	1	270	0.00	30.065 
16:10	52.3	52.3	52.3	73	43.9	0	3	45	0.00	30.065 
16:15	52.3	52.3	52.3	73	43.9	1	4	292	0.00	30.069 
16:20	52.3	52.3	52.3	73	43.9	0	2	338	0.00	30.069 
16:25	52.5	52.5	52.5	72	43.7	1	3	292	0.00	30.069 
16:30	52.3	52.3	52.3	72	43.5	1	6	292	0.00	30.077 
16:35	52.0	52.0	52.0	73	43.6	1	4	315	0.00	30.077 
16:40	51.7	51.7	51.7	74	43.7	1	5	338	0.00	30.077 
16:45	51.6	51.6	51.6	75	43.9	1	5	292	0.00	30.079 
16:50	51.6	51.6	51.6	74	43.6	1	4	315	0.00	30.079 
16:55	51.6	51.6	51.6	74	43.6	0	3	315	0.00	30.079 
17:00	51.9	51.9	51.9	74	43.9	0	1	315	0.00	30.082 
17:05	52.0	52.0	52.0	74	44.0	0	3	338	0.00	30.082 
17:10	52.0	52.0	52.0	73	43.6	1	5	270	0.00	30.082 
17:15	52.0	52.0	52.0	74	44.0	1	3	0	0.00	30.091 
17:20	51.7	51.7	51.7	75	44.0	3	7	315	0.00	30.091 
17:25	51.3	51.3	51.3	77	44.3	2	7	292	0.00	30.091 
17:30	51.3	51.3	51.3	77	44.3	1	6	292	0.00	30.097 
17:35	51.3	51.3	51.3	77	44.3	1	4	270	0.00	30.097 
17:40	51.4	51.4	51.4	76	44.1	1	4	270	0.00	30.097 
17:45	51.7	51.7	51.7	77	44.7	0	1	0	0.00	30.097 
17:50	51.7	51.7	51.7	76	44.4	1	4	270	0.00	30.097 
17:55	51.6	51.6	51.6	77	44.6	0	3	315	0.00	30.097 
18:00	51.1	51.1	51.1	77	44.1	1	5	270	0.00	30.106 
18:05	50.8	50.8	50.8	77	43.9	1	6	315	0.00	30.106 
18:10	50.5	50.5	50.5	77	43.6	1	6	338	0.00	30.106 
18:15	50.5	50.5	50.5	78	43.9	1	4	315	0.00	30.112 
18:20	50.4	50.4	50.4	79	44.1	1	4	338	0.00	30.112 
18:25	50.1	50.1	50.1	80	44.2	1	6	338	0.00	30.112 
18:30	49.9	49.9	49.9	80	44.0	1	6	22	0.00	30.115 
18:35	49.8	49.8	49.8	81	44.2	1	4	292	0.00	30.115 
18:40	49.8	49.8	49.8	81	44.2	1	3	315	0.00	30.115 
18:45	49.8	49.8	49.8	80	43.9	1	5	292	0.00	30.115 
18:50	49.8	49.8	49.8	80	43.9	0	4	292	0.00	30.115 
18:55	49.9	49.9	49.9	79	43.6	0	3	315	0.00	30.115 
19:00	49.9	49.9	49.9	80	44.0	1	5	292	0.00	30.123 
19:05	49.6	49.6	49.6	81	44.0	2	4	292	0.00	30.123 
19:10	49.2	49.2	49.2	83	44.3	1	3	315	0.00	30.123 
19:15	48.8	48.8	48.8	85	44.5	1	5	315	0.00	30.132 
19:20	48.5	48.5	48.5	86	44.5	1	5	292	0.00	30.132 
19:25	48.3	48.3	48.3	86	44.3	1	3	292	0.00	30.132 
19:30	48.3	48.3	48.3	86	44.3	1	4	292	0.00	30.133 
19:35	48.3	48.3	48.3	86	44.3	0	5	315	0.00	30.133 
19:40	48.3	48.3	48.3	85	44.0	1	4	315	0.00	30.133 
19:45	48.3	48.3	48.3	85	44.0	0	3	0	0.00	30.137 
19:50	48.5	48.5	48.5	85	44.2	0	2	0	0.00	30.137 
19:55	48.3	48.3	48.3	86	44.3	0	2	0	0.00	30.137 
20:00	48.3	48.3	48.3	86	44.3	1	4	270	0.00	30.144 
20:05	48.2	48.2	48.2	87	44.5	1	3	338	0.00	30.144 
20:10	48.0	48.0	48.0	86	44.0	1	4	338	0.00	30.144 
20:15	47.7	47.7	47.7	84	43.1	2	9	270	0.00	30.149 
20:20	47.6	47.6	47.6	84	43.0	1	5	270	0.00	30.149 
20:25	47.4	47.4	47.4	84	42.8	1	3	315	0.00	30.149 
20:30	47.4	47.4	47.4	83	42.5	1	4	315	0.00	30.157 
20:35	47.4	47.4	47.4	83	42.5	1	6	0	0.00	30.157 
20:40	47.4	47.4	47.4	82	42.2	1	3	315	0.00	30.157 
20:45	47.4	47.4	47.4	81	41.9	1	5	270	0.00	30.164 
20:50	47.4	47.4	47.4	81	41.9	0	3	22	0.00	30.164 
20:55	47.4	47.4	47.4	81	41.9	1	4	338	0.00	30.164 
21:00	47.4	47.4	47.4	81	41.9	0	4	315	0.00	30.167 
21:05	47.4	47.4	47.4	80	41.5	1	4	270	0.00	30.167 
21:10	47.4	47.4	47.4	80	41.5	0	4	0	0.00	30.167 
21:15	47.3	47.3	47.3	81	41.8	0	3	270	0.00	30.172 
21:20	47.3	47.3	47.3	81	41.8	0	1	270	0.00	30.172 
21:25	47.3	47.3	47.3	81	41.8	1	5	270	0.00	30.172 
21:30	47.1	47.1	47.1	82	41.9	0	3	338	0.00	30.180 
21:35	47.0	47.0	47.0	82	41.8	1	3	90	0.00	30.180 
21:40	47.0	47.0	47.0	82	41.8	0	3	68	0.00	30.180 
21:45	46.8	46.8	46.8	83	41.9	1	4	315	0.00	30.181 
21:50	46.8	46.8	46.8	83	41.9	0	1	270	0.00	30.181 
21:55	46.8	46.8	46.8	84	42.2	0	1	270	0.00	30.181 
22:00	46.7	46.7	46.7	84	42.1	1	3	68	0.00	30.183 
22:05	46.7	46.7	46.7	84	42.1	1	4	270	0.00	30.183 
22:10	46.7	46.7	46.7	84	42.1	1	7	22	0.00	30.183 
22:15	46.7	46.7	46.7	83	41.8	0	2	270	0.00	30.185 
22:20	46.7	46.7	46.7	83	41.8	0	2	338	0.00	30.185 
22:25	46.7	46.7	46.7	83	41.8	0	3	315	0.00	30.185 
22:30	46.7	46.7	46.7	83	41.8	0	2	0	0.00	30.187 
22:35	46.7	46.7	46.7	83	41.8	0	4	180	0.00	30.187 
22:40	46.7	46.7	46.7	83	41.8	1	4	292	0.00	30.187 
22:45	46.8	46.8	46.8	82	41.6	0	2	292	0.00	30.188 
22:50	46.8	46.8	46.8	83	41.9	0	2	292	0.00	30.188 
22:55	46.8	46.8	46.8	82	41.6	1	3	315	0.00	30.188 
23:00	46.8	46.8	46.8	82	41.6	1	3	270	0.00	30.191 
23:05	46.8	46.8	46.8	83	41.9	0	2	22	0.00	30.191 
23:10	46.8	46.8	46.8	83	41.9	0	3	270	0.00	30.191 
23:15	46.8	46.8	46.8	83	41.9	0	3	270	0.00	30.194 
23:20	46.7	46.7	46.7	83	41.8	1	3	270	0.00	30.194 
23:25	46.7	46.7	46.7	83	41.8	0	2	248	0.00	30.194 
23:30	46.7	46.7	46.7	83	41.8	1	5	270	0.00	30.189 
23:35	46.7	46.7	46.7	83	41.8	1	5	315	0.00	30.189 
23:40	46.5	46.5	46.5	83	41.6	0	2	315	0.00	30.189 
23:45	46.4	46.4	46.4	83	41.5	0	3	315	0.00	30.187 
23:50	46.4	46.4	46.4	82	41.2	1	5	292	0.00	30.187 
23:55	46.4	46.4	46.4	82	41.2	0	1	0	0.00	30.187 

CoCoRaHS
IN-AL-39
A2 Web Hosting
Creative Commons License
GoDaddy
search engine by freefind advanced

loaded 2018-11-13 01:38:23 • last modified 2010-11-18 10:43:29
Privacy PolicyDisclaimer
• wx.awcolley.com is powered by PmWiki v.2002016 •
• all content (unless otherwise noted) © 2018 A W Colley